Time;durP1;ratioP1;P1;durP2;ratioP2;P2;SDS_P1;SDS_P2;PMS_P1;PMS_P2;Temp;Humidity;BMP_temperature;BMP_pressure;BME280_temperature;BME280_humidity;BME280_pressure;Samples;Min_cycle;Max_cycle;Signal;HPM_P1;HPM_P2
2022/06/23 00:00:22;;;;;;;10.10;8.63;;;18.50;99.90;;;;;;4918071;29;20200;-79
2022/06/23 00:02:49;;;;;;;10.97;8.30;;;18.60;99.90;;;;;;4918067;29;20279;-79
2022/06/23 00:05:19;;;;;;;12.60;10.80;;;18.60;99.90;;;;;;4900866;29;20200;-79
2022/06/23 00:07:51;;;;;;;9.33;8.00;;;18.50;99.90;;;;;;4918057;29;20800;-79
2022/06/23 00:10:21;;;;;;;8.23;7.43;;;18.50;99.90;;;;;;4917639;29;20209;-79
2022/06/23 00:12:49;;;;;;;11.47;7.57;;;18.50;99.90;;;;;;4917697;29;20318;-79
2022/06/23 00:15:28;;;;;;;11.10;8.00;;;18.50;99.90;;;;;;4917647;29;20259;-79
2022/06/23 00:18:00;;;;;;;11.20;8.00;;;18.40;99.90;;;;;;4900945;29;20642;-79
2022/06/23 00:20:32;;;;;;;13.07;8.17;;;18.30;99.90;;;;;;4917910;29;20200;-79
2022/06/23 00:23:12;;;;;;;8.80;7.77;;;18.30;99.90;;;;;;4917558;29;20306;-78
2022/06/23 00:25:45;;;;;;;8.33;7.53;;;18.30;99.90;;;;;;4900655;29;20259;-78
2022/06/23 00:28:23;;;;;;;7.93;7.13;;;18.30;99.90;;;;;;4910396;29;20253;-80
2022/06/23 00:30:54;;;;;;;9.90;6.83;;;18.30;99.90;;;;;;4900553;29;20259;-79
2022/06/23 00:33:23;;;;;;;7.50;6.80;;;18.20;99.90;;;;;;4900288;29;20228;-79
2022/06/23 00:35:51;;;;;;;7.70;6.93;;;18.30;99.90;;;;;;4917436;29;20628;-79
2022/06/23 00:38:26;;;;;;;7.80;6.33;;;18.20;99.90;;;;;;4917325;29;20206;-79
2022/06/23 00:40:54;;;;;;;7.47;6.27;;;18.20;99.90;;;;;;4917288;29;20614;-79
2022/06/23 00:43:23;;;;;;;7.97;6.50;;;18.20;99.90;;;;;;4900133;29;20271;-79
2022/06/23 00:45:55;;;;;;;7.67;6.40;;;18.20;99.90;;;;;;4917224;29;20196;-80
2022/06/23 00:48:27;;;;;;;7.67;5.43;;;18.10;99.90;;;;;;4916366;29;20188;-79
2022/06/23 00:51:00;;;;;;;7.83;7.00;;;18.10;99.90;;;;;;4900162;29;20212;-79
2022/06/23 00:53:33;;;;;;;7.37;6.67;;;18.10;99.90;;;;;;4894625;29;20228;-79
2022/06/23 00:56:09;;;;;;;7.93;6.73;;;18.00;99.90;;;;;;4900257;29;20253;-79
2022/06/23 00:58:45;;;;;;;7.13;6.20;;;18.00;99.90;;;;;;4900349;29;20213;-79
2022/06/23 01:01:17;;;;;;;8.90;8.00;;;18.00;99.90;;;;;;4914222;29;20200;-79
2022/06/23 01:03:52;;;;;;;11.73;9.87;;;18.00;99.90;;;;;;4916753;29;20204;-79
2022/06/23 01:06:24;;;;;;;10.20;9.20;;;17.90;99.90;;;;;;4910355;29;20195;-79
2022/06/23 01:08:55;;;;;;;10.87;9.87;;;17.90;99.90;;;;;;4900060;29;20203;-80
2022/06/23 01:11:30;;;;;;;12.23;10.80;;;17.90;99.90;;;;;;4899803;29;20378;-79
2022/06/23 01:14:11;;;;;;;13.33;12.33;;;17.70;99.90;;;;;;4916575;29;20211;-79
2022/06/23 01:16:43;;;;;;;10.07;9.07;;;17.70;99.90;;;;;;4916476;29;20575;-79
2022/06/23 01:19:30;;;;;;;13.97;12.73;;;17.70;99.90;;;;;;4914460;29;20200;-79
2022/06/23 01:22:01;;;;;;;9.70;7.40;;;17.70;99.90;;;;;;4916143;29;20645;-79
2022/06/23 01:24:36;;;;;;;11.27;8.23;;;17.70;99.90;;;;;;4899099;29;20215;-79
2022/06/23 01:27:20;;;;;;;9.17;7.90;;;17.60;99.90;;;;;;4915553;29;20253;-79
2022/06/23 01:29:53;;;;;;;10.50;8.40;;;17.60;99.90;;;;;;4916066;29;20210;-79
2022/06/23 01:32:24;;;;;;;10.63;7.30;;;17.50;99.90;;;;;;4916508;29;20235;-79
2022/06/23 01:34:55;;;;;;;9.50;8.60;;;17.50;99.90;;;;;;4899137;29;20214;-79
2022/06/23 01:37:27;;;;;;;9.57;8.67;;;17.50;99.90;;;;;;4916312;29;20708;-79
2022/06/23 01:40:05;;;;;;;12.63;11.50;;;17.50;99.90;;;;;;4899213;29;20226;-79
2022/06/23 01:42:39;;;;;;;7.60;6.50;;;17.40;99.90;;;;;;4916233;29;20211;-79
2022/06/23 01:45:16;;;;;;;11.63;7.83;;;17.40;99.90;;;;;;4898992;29;20305;-79
2022/06/23 01:47:48;;;;;;;8.57;7.40;;;17.40;99.90;;;;;;4906937;29;20213;-77
2022/06/23 01:50:32;;;;;;;8.93;6.93;;;17.40;99.90;;;;;;4914581;29;20192;-79
2022/06/23 01:53:14;;;;;;;8.33;7.30;;;17.40;99.90;;;;;;4915917;29;20220;-79
2022/06/23 01:56:08;;;;;;;10.43;9.40;;;17.30;99.90;;;;;;4904688;29;20207;-79
2022/06/23 01:58:47;;;;;;;8.03;5.83;;;17.30;99.90;;;;;;4898325;29;20635;-77
2022/06/23 02:01:21;;;;;;;7.57;6.20;;;17.30;99.90;;;;;;4896493;29;20663;-79
2022/06/23 02:03:53;;;;;;;7.37;6.10;;;17.30;99.90;;;;;;4898754;29;20211;-79
2022/06/23 02:06:26;;;;;;;10.47;9.47;;;17.20;99.90;;;;;;4898980;29;20259;-79
2022/06/23 02:08:59;;;;;;;7.23;6.53;;;17.20;99.90;;;;;;4915789;29;20203;-79
2022/06/23 02:11:31;;;;;;;6.60;5.90;;;17.10;99.90;;;;;;4898801;29;20276;-79
2022/06/23 02:14:05;;;;;;;7.33;6.63;;;17.10;99.90;;;;;;4898455;29;20290;-79
2022/06/23 02:16:40;;;;;;;8.43;7.20;;;17.10;99.90;;;;;;4915732;29;20204;-79
2022/06/23 02:19:16;;;;;;;9.50;8.70;;;17.00;99.90;;;;;;4898696;29;20345;-79
2022/06/23 02:21:47;;;;;;;9.13;8.27;;;17.00;99.90;;;;;;4898511;29;20229;-79
2022/06/23 02:24:21;;;;;;;11.00;10.00;;;17.00;99.90;;;;;;4891516;29;20200;-79
2022/06/23 02:27:02;;;;;;;11.23;10.23;;;17.00;99.90;;;;;;4898642;29;20306;-78
2022/06/23 02:29:36;;;;;;;7.23;6.53;;;17.00;99.90;;;;;;4915738;29;20188;-79
2022/06/23 02:32:11;;;;;;;7.70;5.23;;;17.00;99.90;;;;;;4898268;29;20294;-79
2022/06/23 02:34:45;;;;;;;7.63;7.03;;;16.90;99.90;;;;;;4898472;29;20266;-79
2022/06/23 02:37:49;;;;;;;8.70;8.00;;;16.90;99.90;;;;;;4913879;29;20198;-79
2022/06/23 02:40:21;;;;;;;9.20;8.20;;;16.80;99.90;;;;;;4914957;29;20235;-79
2022/06/23 02:42:53;;;;;;;8.40;7.70;;;16.80;99.90;;;;;;4915817;29;20228;-80
2022/06/23 02:45:45;;;;;;;7.90;7.20;;;16.80;99.90;;;;;;4915233;29;20246;-80
2022/06/23 02:48:29;;;;;;;8.13;7.43;;;16.80;99.90;;;;;;4907629;29;20802;-80
2022/06/23 02:51:13;;;;;;;10.03;9.13;;;16.80;99.90;;;;;;4898538;29;20208;-80
2022/06/23 02:54:05;;;;;;;8.83;8.13;;;16.80;99.90;;;;;;4897951;29;20620;-80
2022/06/23 02:56:44;;;;;;;9.37;8.67;;;16.80;99.90;;;;;;4898491;29;20203;-82
2022/06/23 02:59:18;;;;;;;9.07;8.37;;;16.70;99.90;;;;;;4884327;29;20259;-80
2022/06/23 03:01:51;;;;;;;8.57;7.90;;;16.70;99.90;;;;;;4911898;29;20215;-79
2022/06/23 03:04:24;;;;;;;10.87;9.87;;;16.70;99.90;;;;;;4914813;29;20207;-80
2022/06/23 03:07:01;;;;;;;9.63;8.83;;;16.70;99.90;;;;;;4897909;29;20293;-79
2022/06/23 03:09:36;;;;;;;8.60;8.00;;;16.70;99.90;;;;;;4896009;29;20207;-80
2022/06/23 03:12:10;;;;;;;9.10;8.40;;;16.70;99.90;;;;;;4916710;23;20228;-84
2022/06/23 03:14:43;;;;;;;10.30;9.50;;;16.70;99.90;;;;;;4901158;29;20212;-85
2022/06/23 03:17:20;;;;;;;10.13;9.13;;;16.80;99.90;;;;;;4903208;29;20205;-83
2022/06/23 03:19:58;;;;;;;9.30;8.50;;;16.80;99.90;;;;;;4905016;29;20208;-83
2022/06/23 03:22:31;;;;;;;10.03;8.73;;;16.80;99.90;;;;;;4885452;29;20216;-82
2022/06/23 03:25:05;;;;;;;8.93;8.13;;;16.80;99.90;;;;;;4884013;29;20206;-84
2022/06/23 03:27:35;;;;;;;8.63;7.60;;;16.80;99.90;;;;;;4885569;29;20280;-83
2022/06/23 03:30:07;;;;;;;7.93;7.33;;;16.80;99.90;;;;;;4885347;29;20203;-84
2022/06/23 03:32:41;;;;;;;9.40;8.50;;;16.80;99.90;;;;;;4883188;29;20289;-84
2022/06/23 03:35:19;;;;;;;8.07;7.47;;;16.80;99.90;;;;;;4899872;29;20216;-85
2022/06/23 03:37:52;;;;;;;7.80;7.20;;;16.80;99.90;;;;;;4899795;29;20268;-84
2022/06/23 03:43:18;;;;;;;8.00;7.40;;;16.90;99.90;;;;;;4882384;29;20591;-85
2022/06/23 03:45:51;;;;;;;7.90;7.30;;;16.90;99.90;;;;;;4883065;29;20253;-83
2022/06/23 03:48:24;;;;;;;8.13;7.43;;;17.00;99.90;;;;;;4883206;29;20211;-84
2022/06/23 03:50:58;;;;;;;13.30;12.40;;;17.00;99.90;;;;;;4899557;29;20207;-83
2022/06/23 03:53:27;;;;;;;12.70;11.77;;;17.10;99.90;;;;;;4899082;29;21003;-83
2022/06/23 03:55:57;;;;;;;12.67;11.77;;;17.20;99.90;;;;;;4899909;29;20202;-84
2022/06/23 03:58:34;;;;;;;13.43;12.50;;;17.20;99.90;;;;;;4883510;29;20577;-83
2022/06/23 04:01:07;;;;;;;13.63;12.57;;;17.30;99.90;;;;;;4882706;29;20216;-83
2022/06/23 04:03:38;;;;;;;14.10;13.20;;;17.30;99.90;;;;;;4899233;29;20707;-83
2022/06/23 04:06:23;;;;;;;14.10;13.10;;;17.40;99.90;;;;;;4899308;29;20258;-83
2022/06/23 04:09:02;;;;;;;14.03;12.90;;;17.40;99.90;;;;;;4882347;29;20211;-83
2022/06/23 04:11:44;;;;;;;13.40;12.50;;;17.40;99.90;;;;;;4899076;29;20706;-82
2022/06/23 04:14:32;;;;;;;13.23;12.30;;;17.40;99.90;;;;;;4874662;29;20196;-83
2022/06/23 04:17:13;;;;;;;13.27;12.23;;;17.40;99.90;;;;;;4899105;29;20208;-83
2022/06/23 04:19:44;;;;;;;12.87;11.87;;;17.30;99.90;;;;;;4899225;29;20206;-84
2022/06/23 04:22:19;;;;;;;12.90;12.00;;;17.30;99.90;;;;;;4874606;29;20212;-84
2022/06/23 04:24:50;;;;;;;12.77;11.73;;;17.30;99.90;;;;;;4881809;29;20255;-83
2022/06/23 04:27:22;;;;;;;12.93;11.90;;;17.30;99.90;;;;;;4898896;29;20257;-83
2022/06/23 04:29:53;;;;;;;12.33;11.43;;;17.30;99.90;;;;;;4882237;29;20203;-83
2022/06/23 04:32:26;;;;;;;11.97;11.17;;;17.20;99.90;;;;;;4881803;29;20227;-83
2022/06/23 04:34:58;;;;;;;12.43;11.43;;;17.20;99.90;;;;;;4898532;29;20202;-83
2022/06/23 04:37:33;;;;;;;12.47;11.67;;;17.20;99.90;;;;;;4881992;29;20211;-82
2022/06/23 04:40:09;;;;;;;12.67;11.67;;;17.20;99.90;;;;;;4882153;29;20665;-83
2022/06/23 04:42:44;;;;;;;11.70;10.90;;;17.20;99.90;;;;;;4881730;29;20262;-83
2022/06/23 04:45:37;;;;;;;12.50;11.70;;;17.20;99.90;;;;;;4874000;29;20262;-83
2022/06/23 04:48:10;;;;;;;12.30;11.40;;;17.40;99.90;;;;;;4881860;29;20216;-83
2022/06/23 04:50:45;;;;;;;12.40;11.60;;;17.70;99.90;;;;;;4881541;29;20208;-83
2022/06/23 04:53:23;;;;;;;13.03;11.90;;;18.00;99.90;;;;;;4887344;29;20236;-83
2022/06/23 04:56:06;;;;;;;12.70;11.80;;;18.40;99.90;;;;;;4881068;29;20204;-83
2022/06/23 04:58:35;;;;;;;12.20;11.27;;;18.60;99.90;;;;;;4881910;29;20666;-83
2022/06/23 05:01:02;;;;;;;12.10;11.10;;;18.80;99.90;;;;;;4881326;29;20272;-83
2022/06/23 05:03:34;;;;;;;11.80;11.00;;;19.00;99.90;;;;;;4901201;29;20297;-83
2022/06/23 05:06:04;;;;;;;12.47;11.47;;;19.30;99.90;;;;;;4881358;29;20216;-84
2022/06/23 05:08:34;;;;;;;11.77;10.97;;;19.60;99.90;;;;;;4876652;29;20210;-83
2022/06/23 05:11:06;;;;;;;14.00;12.90;;;19.80;99.90;;;;;;4898464;29;20210;-83
2022/06/23 05:13:40;;;;;;;14.60;13.60;;;20.00;99.90;;;;;;4898637;29;20227;-83
2022/06/23 05:16:10;;;;;;;14.03;12.83;;;20.00;99.90;;;;;;4881623;29;20210;-83
2022/06/23 05:18:42;;;;;;;13.80;12.80;;;20.30;99.90;;;;;;4881301;29;20236;-83
2022/06/23 05:21:14;;;;;;;14.73;13.43;;;20.60;99.90;;;;;;4881528;29;20571;-83
2022/06/23 05:23:45;;;;;;;16.33;15.03;;;20.80;99.90;;;;;;4897763;29;20227;-83
2022/06/23 05:26:17;;;;;;;5.57;4.90;;;20.80;99.90;;;;;;4891146;29;20577;-83
2022/06/23 05:28:45;;;;;;;10.70;9.73;;;20.90;99.90;;;;;;4914953;29;20674;-83
2022/06/23 05:31:20;;;;;;;6.53;5.10;;;20.80;99.90;;;;;;4889647;29;20256;-83
2022/06/23 05:33:50;;;;;;;13.20;12.20;;;20.90;99.90;;;;;;4880793;29;20292;-83
2022/06/23 05:36:21;;;;;;;5.40;4.50;;;21.10;99.90;;;;;;4880900;29;20267;-83
2022/06/23 05:38:53;;;;;;;8.57;7.87;;;21.40;99.90;;;;;;4897601;29;20209;-83
2022/06/23 05:41:25;;;;;;;7.00;6.03;;;21.80;99.90;;;;;;4897571;29;20252;-83
2022/06/23 05:43:54;;;;;;;7.80;7.20;;;22.40;99.90;;;;;;4880479;29;20209;-86
2022/06/23 05:46:23;;;;;;;6.90;5.03;;;23.10;99.90;;;;;;4898094;29;20569;-83
2022/06/23 05:48:57;;;;;;;11.60;10.70;;;23.70;99.90;;;;;;4880659;29;20209;-84
2022/06/23 05:51:31;;;;;;;11.13;10.33;;;24.30;99.90;;;;;;4898681;29;20193;-84
2022/06/23 05:54:06;;;;;;;8.33;7.63;;;24.90;99.90;;;;;;4910476;29;20268;-83
2022/06/23 05:56:46;;;;;;;10.60;9.80;;;25.00;99.90;;;;;;4897736;29;20772;-83
2022/06/23 05:59:16;;;;;;;9.43;8.70;;;25.60;99.90;;;;;;4904754;29;20299;-83
2022/06/23 06:01:50;;;;;;;9.77;8.97;;;26.10;99.90;;;;;;4897146;29;20272;-83
2022/06/23 06:04:20;;;;;;;10.10;9.37;;;26.20;99.90;;;;;;4879521;29;20666;-83
2022/06/23 06:06:48;;;;;;;9.97;9.17;;;26.40;99.90;;;;;;4881488;29;20213;-83
2022/06/23 06:09:40;;;;;;;9.10;8.30;;;26.50;99.90;;;;;;4897091;29;20553;-84
2022/06/23 06:12:13;;;;;;;9.30;8.40;;;26.40;99.90;;;;;;4880033;29;20288;-82
2022/06/23 06:14:42;;;;;;;7.77;6.00;;;26.50;99.90;;;;;;4882435;29;20223;-83
2022/06/23 06:17:17;;;;;;;5.53;3.47;;;27.00;99.90;;;;;;4872762;29;20196;-83
2022/06/23 06:19:44;;;;;;;5.20;3.50;;;27.40;99.90;;;;;;4896961;29;20255;-82
2022/06/23 06:22:23;;;;;;;6.07;3.80;;;27.70;99.90;;;;;;4897051;29;20299;-82
2022/06/23 06:24:53;;;;;;;4.13;3.33;;;27.70;99.90;;;;;;4880158;29;20212;-83
2022/06/23 06:27:20;;;;;;;6.10;3.63;;;28.00;99.90;;;;;;4873997;29;20200;-83
2022/06/23 06:29:50;;;;;;;5.73;3.80;;;27.90;99.90;;;;;;4880012;29;20444;-83
2022/06/23 06:32:29;;;;;;;4.70;4.37;;;27.50;99.90;;;;;;4880108;29;20266;-84
2022/06/23 06:34:59;;;;;;;5.97;5.40;;;27.60;99.90;;;;;;4879881;29;20269;-83
2022/06/23 06:37:31;;;;;;;5.73;5.10;;;27.80;99.90;;;;;;4896838;29;20413;-83
2022/06/23 06:40:03;;;;;;;4.97;4.07;;;28.00;99.90;;;;;;4880266;29;20268;-83
2022/06/23 06:42:35;;;;;;;4.37;3.50;;;28.00;99.90;;;;;;4896651;29;20394;-83
2022/06/23 06:45:08;;;;;;;5.83;3.50;;;28.10;99.90;;;;;;4910684;29;20212;-83
2022/06/23 06:47:38;;;;;;;5.33;3.50;;;28.40;99.90;;;;;;4900220;29;20201;-83
2022/06/23 06:50:20;;;;;;;8.33;3.73;;;28.50;99.90;;;;;;4883883;29;20213;-83
2022/06/23 06:52:48;;;;;;;5.57;3.57;;;28.60;99.90;;;;;;4900583;29;20682;-83
2022/06/23 06:55:21;;;;;;;5.63;3.70;;;28.80;99.90;;;;;;4884105;29;20211;-84
2022/06/23 06:57:52;;;;;;;5.17;4.00;;;29.00;99.90;;;;;;4884909;29;20643;-83
2022/06/23 07:00:24;;;;;;;6.33;3.87;;;29.30;99.90;;;;;;4901296;29;20207;-83
2022/06/23 07:02:56;;;;;;;4.70;3.93;;;29.10;99.90;;;;;;4900184;29;20224;-83
2022/06/23 07:05:29;;;;;;;8.83;8.03;;;29.10;99.90;;;;;;4883990;29;20209;-82
2022/06/23 07:08:01;;;;;;;9.03;8.20;;;29.20;99.90;;;;;;4903837;29;20560;-81
2022/06/23 07:10:35;;;;;;;9.03;7.90;;;28.90;99.90;;;;;;4900942;29;20207;-79
2022/06/23 07:13:05;;;;;;;8.70;7.90;;;29.10;99.90;;;;;;4900140;29;20234;-80
2022/06/23 07:15:37;;;;;;;8.70;8.00;;;29.00;99.90;;;;;;4900317;29;20256;-78
2022/06/23 07:18:14;;;;;;;9.90;8.40;;;29.00;99.90;;;;;;4883876;29;20212;-79
2022/06/23 07:20:46;;;;;;;10.57;8.37;;;28.90;99.90;;;;;;4883725;29;20212;-79
2022/06/23 07:23:18;;;;;;;9.20;7.50;;;28.60;99.90;;;;;;4876828;29;20216;-79
2022/06/23 07:25:52;;;;;;;7.50;6.73;;;28.70;99.90;;;;;;4900607;29;20272;-79
2022/06/23 07:28:24;;;;;;;8.37;7.67;;;28.90;99.90;;;;;;4900283;29;20193;-79
2022/06/23 07:30:56;;;;;;;9.17;7.37;;;29.10;99.90;;;;;;4883533;29;20209;-79
2022/06/23 07:33:27;;;;;;;8.13;7.33;;;28.80;99.90;;;;;;4882928;29;20224;-79
2022/06/23 07:36:00;;;;;;;9.63;5.87;;;28.90;99.90;;;;;;4883136;29;20200;-79
2022/06/23 07:38:31;;;;;;;7.13;3.70;;;28.80;99.90;;;;;;4894423;29;20661;-79
2022/06/23 07:41:07;;;;;;;8.97;3.77;;;28.90;99.90;;;;;;4883039;29;20209;-79
2022/06/23 07:43:40;;;;;;;6.67;5.47;;;29.20;99.90;;;;;;4899595;29;20223;-79
2022/06/23 07:46:07;;;;;;;7.60;7.00;;;29.30;99.90;;;;;;4899745;29;20249;-79
2022/06/23 07:48:36;;;;;;;8.53;7.63;;;29.30;99.90;;;;;;4899706;29;20201;-80
2022/06/23 07:51:05;;;;;;;10.60;7.10;;;29.30;99.90;;;;;;4882508;29;20212;-80
2022/06/23 07:53:35;;;;;;;7.03;5.90;;;29.30;99.90;;;;;;4899276;29;20565;-79
2022/06/23 07:56:04;;;;;;;9.87;8.20;;;29.30;99.90;;;;;;4899765;29;20256;-79
2022/06/23 07:58:34;;;;;;;9.27;8.30;;;29.60;99.90;;;;;;4899556;29;20208;-79
2022/06/23 08:01:07;;;;;;;8.70;8.00;;;29.20;99.90;;;;;;4882885;29;20587;-79
2022/06/23 08:03:39;;;;;;;8.10;7.40;;;29.10;99.90;;;;;;4882445;29;20224;-79
2022/06/23 08:06:10;;;;;;;9.40;8.40;;;29.10;99.90;;;;;;4878708;29;20261;-78
2022/06/23 08:08:40;;;;;;;8.53;7.83;;;29.30;99.90;;;;;;4899496;29;20682;-79
2022/06/23 08:14:00;;;;;;;8.80;7.83;;;29.50;99.90;;;;;;4899105;29;20217;-79
2022/06/23 08:19:23;;;;;;;11.50;7.90;;;30.00;99.90;;;;;;4882777;29;20552;-79
2022/06/23 08:21:54;;;;;;;9.33;7.40;;;29.70;99.90;;;;;;4899142;29;20220;-79
2022/06/23 08:24:24;;;;;;;9.07;8.00;;;29.70;99.90;;;;;;4882290;29;20208;-79
2022/06/23 08:26:56;;;;;;;8.03;7.30;;;29.90;99.90;;;;;;4882520;29;20674;-79
2022/06/23 08:29:28;;;;;;;8.43;7.73;;;30.20;99.90;;;;;;4899611;29;20204;-79
2022/06/23 08:31:55;;;;;;;8.17;7.60;;;30.20;99.90;;;;;;4898099;29;20280;-79
2022/06/23 08:34:23;;;;;;;9.17;8.30;;;30.30;99.90;;;;;;4898484;29;20220;-79
2022/06/23 08:36:52;;;;;;;4.67;3.23;;;30.30;99.90;;;;;;4898617;29;20201;-79
2022/06/23 08:39:26;;;;;;;7.20;4.03;;;30.40;99.90;;;;;;4899251;29;20228;-79
2022/06/23 08:42:01;;;;;;;8.67;7.80;;;30.80;99.90;;;;;;4882030;29;20292;-78
2022/06/23 08:44:37;;;;;;;8.83;7.90;;;30.90;99.90;;;;;;4898383;29;20279;-79
2022/06/23 08:47:13;;;;;;;10.47;5.90;;;30.80;99.90;;;;;;4912905;29;20212;-79
2022/06/23 08:49:44;;;;;;;9.27;5.07;;;30.90;99.90;;;;;;4881341;29;20204;-79
2022/06/23 08:52:15;;;;;;;8.00;4.67;;;30.80;99.90;;;;;;4877885;29;20521;-79
2022/06/23 08:54:55;;;;;;;8.83;7.93;;;30.70;99.90;;;;;;4881440;29;20228;-79
2022/06/23 08:57:31;;;;;;;4.30;3.17;;;30.40;99.90;;;;;;4892255;29;20746;-79
2022/06/23 09:00:04;;;;;;;5.97;4.97;;;30.50;99.90;;;;;;4898511;29;20749;-78
2022/06/23 09:02:37;;;;;;;9.37;7.80;;;30.80;99.90;;;;;;4898557;29;20228;-79
2022/06/23 09:05:13;;;;;;;8.40;7.70;;;30.60;99.90;;;;;;4898129;29;20204;-79
2022/06/23 09:07:51;;;;;;;9.27;8.10;;;30.80;99.90;;;;;;4881702;29;20212;-80
2022/06/23 09:10:30;;;;;;;8.57;7.77;;;31.20;99.90;;;;;;4890777;29;20189;-79
2022/06/23 09:13:09;;;;;;;10.57;8.10;;;31.30;99.90;;;;;;4882647;29;20701;-80
2022/06/23 09:16:04;;;;;;;8.90;8.00;;;31.30;99.90;;;;;;4881791;29;20212;-80
2022/06/23 09:19:00;;;;;;;8.77;7.87;;;31.50;99.90;;;;;;4897440;29;20212;-81
2022/06/23 09:21:54;;;;;;;8.27;7.47;;;31.30;99.90;;;;;;4876190;29;20674;-82
2022/06/23 09:24:53;;;;;;;8.30;7.50;;;31.50;99.90;;;;;;4890880;29;20722;-83
2022/06/23 09:27:33;;;;;;;8.23;7.53;;;31.50;99.90;;;;;;4874729;29;20260;-80
2022/06/23 09:30:06;;;;;;;8.60;7.70;;;31.80;99.90;;;;;;4879886;29;20205;-80
2022/06/23 09:32:55;;;;;;;9.07;8.20;;;31.80;99.90;;;;;;4880085;29;20272;-80
2022/06/23 09:35:53;;;;;;;7.83;7.13;;;31.90;99.90;;;;;;4892502;29;20188;-81
2022/06/23 09:38:41;;;;;;;6.93;6.23;;;31.40;99.90;;;;;;4845018;29;20315;-80
2022/06/23 09:41:20;;;;;;;7.60;6.60;;;31.60;99.90;;;;;;4880679;29;20204;-81
2022/06/23 09:44:17;;;;;;;9.27;5.73;;;31.00;99.90;;;;;;4911820;29;20268;-80
2022/06/23 09:47:04;;;;;;;9.10;6.93;;;31.30;99.90;;;;;;4897855;29;20200;-82
2022/06/23 09:49:52;;;;;;;10.13;7.90;;;31.50;99.90;;;;;;4898162;29;20200;-80
2022/06/23 09:52:55;;;;;;;7.73;6.70;;;31.70;99.90;;;;;;4894134;29;20284;-80
2022/06/23 09:55:47;;;;;;;8.20;6.30;;;31.80;99.90;;;;;;4882172;29;20239;-80
2022/06/23 09:58:50;;;;;;;6.37;5.63;;;31.90;99.60;;;;;;4862402;29;20216;-81
2022/06/23 10:01:28;;;;;;;7.57;6.87;;;31.50;99.90;;;;;;4875087;29;20260;-84
2022/06/23 10:04:08;;;;;;;9.20;8.30;;;31.60;98.70;;;;;;4911360;29;20204;-83
2022/06/23 10:06:53;;;;;;;8.40;7.60;;;31.30;99.90;;;;;;4875973;29;20201;-83
2022/06/23 10:09:38;;;;;;;10.43;8.47;;;31.70;99.60;;;;;;4874374;29;20196;-83
2022/06/23 10:12:38;;;;;;;8.13;7.30;;;32.00;99.90;;;;;;4897082;29;20657;-81
2022/06/23 10:15:19;;;;;;;8.40;7.70;;;32.30;99.90;;;;;;4878330;29;20269;-80
2022/06/23 10:18:09;;;;;;;8.30;7.50;;;32.20;99.90;;;;;;4894501;29;20678;-80
2022/06/23 10:20:46;;;;;;;8.13;7.40;;;32.10;99.60;;;;;;4892588;29;20260;-80
2022/06/23 10:23:45;;;;;;;11.60;7.50;;;32.10;98.00;;;;;;4895015;29;20246;-81
2022/06/23 10:26:33;;;;;;;8.23;3.50;;;32.00;99.90;;;;;;4896022;29;20208;-80
2022/06/23 10:29:12;;;;;;;8.47;7.40;;;31.90;99.70;;;;;;4876341;29;20208;-81
2022/06/23 10:32:12;;;;;;;8.20;7.40;;;31.60;99.90;;;;;;4896821;29;20200;-81
2022/06/23 10:34:52;;;;;;;10.47;7.90;;;31.60;99.90;;;;;;4872143;29;20286;-81
2022/06/23 10:37:53;;;;;;;9.80;7.13;;;30.90;99.90;;;;;;4896814;29;20551;-80
2022/06/23 10:40:46;;;;;;;9.63;6.90;;;30.50;99.90;;;;;;4896920;29;20204;-81
2022/06/23 10:43:52;;;;;;;11.57;7.07;;;30.30;99.90;;;;;;4910531;29;20669;-83
2022/06/23 10:46:24;;;;;;;10.37;7.90;;;30.50;99.80;;;;;;4896654;29;20283;-80
2022/06/23 10:49:26;;;;;;;10.30;7.43;;;30.40;99.90;;;;;;4896479;29;20211;-80
2022/06/23 10:52:38;;;;;;;8.27;6.87;;;30.40;99.90;;;;;;4877877;29;20220;-80
2022/06/23 10:55:26;;;;;;;8.37;7.40;;;30.70;99.90;;;;;;4861729;29;20725;-79
2022/06/23 10:58:20;;;;;;;11.50;7.50;;;31.10;99.90;;;;;;4894355;29;20239;-79
2022/06/23 11:00:57;;;;;;;8.90;8.00;;;31.10;99.90;;;;;;4892640;29;20217;-79
2022/06/23 11:03:58;;;;;;;9.50;7.60;;;31.10;99.90;;;;;;4896504;29;20220;-80
2022/06/23 11:06:51;;;;;;;8.03;7.27;;;31.10;99.90;;;;;;4892280;29;20662;-80
2022/06/23 11:09:52;;;;;;;10.17;7.60;;;30.90;99.90;;;;;;4888506;29;20629;-80
2022/06/23 11:12:51;;;;;;;10.07;7.30;;;31.00;99.50;;;;;;4892063;29;20298;-80
2022/06/23 11:15:26;;;;;;;9.90;7.10;;;30.80;98.40;;;;;;4894360;29;20792;-80
2022/06/23 11:18:13;;;;;;;7.53;6.70;;;30.60;98.30;;;;;;4910882;29;20264;-80
2022/06/23 11:20:53;;;;;;;8.40;6.90;;;30.50;98.70;;;;;;4892996;29;20204;-80
2022/06/23 11:23:31;;;;;;;9.63;6.97;;;30.50;99.30;;;;;;4891427;29;20224;-79
2022/06/23 11:26:07;;;;;;;9.37;7.00;;;30.50;99.10;;;;;;4879681;29;20204;-79
2022/06/23 11:28:52;;;;;;;12.77;7.23;;;30.60;99.20;;;;;;4879700;29;20275;-80
2022/06/23 11:31:31;;;;;;;8.90;6.90;;;30.60;99.20;;;;;;4887011;29;20208;-80
2022/06/23 11:34:20;;;;;;;13.13;7.90;;;30.50;99.90;;;;;;4897255;29;20220;-79
2022/06/23 11:37:01;;;;;;;10.23;7.57;;;30.00;99.90;;;;;;4900503;29;20264;-80
2022/06/23 11:39:45;;;;;;;10.27;7.60;;;29.30;99.90;;;;;;4894402;29;20204;-79
2022/06/23 11:42:31;;;;;;;8.00;7.00;;;29.00;99.90;;;;;;4879246;29;20228;-79
2022/06/23 11:45:17;;;;;;;11.47;9.03;;;29.10;99.90;;;;;;4899814;29;20188;-80
2022/06/23 11:47:54;;;;;;;8.43;6.93;;;29.20;99.90;;;;;;4885734;29;20208;-80
2022/06/23 11:50:29;;;;;;;10.13;7.50;;;29.30;99.90;;;;;;4885850;29;20267;-80
2022/06/23 11:53:14;;;;;;;7.90;7.20;;;29.50;99.90;;;;;;4884858;29;20220;-79
2022/06/23 11:55:46;;;;;;;7.30;4.63;;;29.70;99.90;;;;;;4882616;29;20228;-80
2022/06/23 11:58:33;;;;;;;6.23;3.17;;;29.80;99.90;;;;;;4880040;29;20272;-79
2022/06/23 12:01:14;;;;;;;6.63;6.03;;;30.20;99.90;;;;;;4899389;29;20200;-79
2022/06/23 12:04:12;;;;;;;7.20;6.50;;;30.30;99.90;;;;;;4895813;29;20228;-79
2022/06/23 12:06:49;;;;;;;7.93;7.17;;;30.50;99.90;;;;;;4894216;29;20252;-80
2022/06/23 12:09:24;;;;;;;9.40;7.17;;;30.50;99.90;;;;;;4885197;29;20205;-80
2022/06/23 12:11:50;;;;;;;8.63;6.47;;;30.30;99.90;;;;;;4882829;29;20232;-80
2022/06/23 12:14:18;;;;;;;10.30;7.37;;;30.10;99.90;;;;;;4901082;29;20209;-79
2022/06/23 12:16:55;;;;;;;10.17;7.93;;;30.10;99.90;;;;;;4884538;29;20208;-79
2022/06/23 12:19:28;;;;;;;9.70;7.73;;;30.20;99.90;;;;;;4900685;29;20196;-79
2022/06/23 12:22:02;;;;;;;7.73;4.13;;;30.20;99.90;;;;;;4883403;29;20228;-78
2022/06/23 12:24:35;;;;;;;7.47;3.67;;;30.00;99.90;;;;;;4883314;29;20199;-79
2022/06/23 12:27:10;;;;;;;7.90;5.80;;;29.70;99.90;;;;;;4900415;29;20208;-79
2022/06/23 12:29:46;;;;;;;6.90;3.20;;;29.30;99.90;;;;;;4900540;29;20208;-79
2022/06/23 12:32:18;;;;;;;9.63;6.40;;;29.10;99.90;;;;;;4879756;29;20304;-78
2022/06/23 12:34:56;;;;;;;8.30;6.50;;;29.00;99.90;;;;;;4881425;29;20228;-78
2022/06/23 12:37:33;;;;;;;5.27;3.47;;;29.30;99.90;;;;;;4881955;29;20240;-79
2022/06/23 12:40:04;;;;;;;5.83;3.13;;;29.60;99.90;;;;;;4898665;29;20211;-78
2022/06/23 12:42:37;;;;;;;9.30;4.03;;;29.90;99.90;;;;;;4881112;29;20239;-78
2022/06/23 12:45:44;;;;;;;4.73;3.10;;;30.10;99.90;;;;;;4912706;29;20201;-79
2022/06/23 12:48:34;;;;;;;7.23;3.00;;;30.20;99.90;;;;;;4813329;29;20206;-79
2022/06/23 12:51:08;;;;;;;5.97;3.70;;;30.30;99.90;;;;;;4898683;29;20197;-79
2022/06/23 12:53:58;;;;;;;8.43;3.30;;;30.10;99.90;;;;;;4881373;29;20638;-79
2022/06/23 12:56:43;;;;;;;8.20;3.30;;;29.80;99.90;;;;;;4895676;29;20213;-79
2022/06/23 12:59:16;;;;;;;9.33;3.60;;;29.90;99.90;;;;;;4890592;29;20192;-79
2022/06/23 13:01:47;;;;;;;8.37;3.63;;;29.80;99.90;;;;;;4898179;29;20208;-79
2022/06/23 13:04:22;;;;;;;7.23;3.30;;;29.90;99.90;;;;;;4874517;29;20211;-79
2022/06/23 13:06:54;;;;;;;4.53;3.20;;;29.80;99.90;;;;;;4881951;29;20204;-79
2022/06/23 13:09:31;;;;;;;5.23;2.60;;;29.80;99.90;;;;;;4899115;29;20208;-79
2022/06/23 13:12:07;;;;;;;7.80;3.70;;;30.00;99.90;;;;;;4898607;29;20709;-79
2022/06/23 13:14:40;;;;;;;9.30;3.37;;;30.00;99.90;;;;;;4882229;29;20251;-80
2022/06/23 13:17:25;;;;;;;6.57;3.40;;;29.80;99.90;;;;;;4899579;29;20248;-79
2022/06/23 13:20:00;;;;;;;5.77;3.70;;;29.90;99.90;;;;;;4877146;29;20231;-79
2022/06/23 13:22:27;;;;;;;10.80;3.57;;;30.00;99.90;;;;;;4875810;29;20240;-79
2022/06/23 13:24:56;;;;;;;8.97;3.80;;;29.90;99.90;;;;;;4881437;29;20209;-79
2022/06/23 13:27:27;;;;;;;4.80;3.20;;;30.00;99.90;;;;;;4898481;29;20212;-78
2022/06/23 13:30:00;;;;;;;10.17;4.23;;;30.10;99.90;;;;;;4881231;29;20908;-78
2022/06/23 13:32:35;;;;;;;8.57;3.50;;;30.10;99.90;;;;;;4897689;29;20294;-79
2022/06/23 13:35:14;;;;;;;8.27;3.60;;;29.80;99.90;;;;;;4880374;29;20236;-79
2022/06/23 13:37:46;;;;;;;7.10;3.20;;;29.60;99.90;;;;;;4894184;29;20208;-79
2022/06/23 13:40:29;;;;;;;11.77;3.70;;;29.80;99.90;;;;;;4891742;29;20209;-79